Time;durP1;ratioP1;P1;durP2;ratioP2;P2;SDS_P1;SDS_P2;PMS_P1;PMS_P2;Temp;Humidity;BMP_temperature;BMP_pressure;BME280_temperature;BME280_humidity;BME280_pressure;Samples;Min_cycle;Max_cycle;Signal;HPM_P1;HPM_P2
2022/06/23 00:04:23;;;;;;;;;;;;;;;15.85;100.00;101325.28;2618428;31;19985;-59
2022/06/23 00:12:27;;;;;;;;;;;;;;;15.65;100.00;101306.47;2615308;36;19954;-62
2022/06/23 00:17:31;;;;;;;;;;;;;;;15.57;100.00;101290.97;2614225;39;20351;-59
2022/06/23 00:20:02;;;;;;;;;;;;;;;15.54;100.00;101290.44;2614078;36;19953;-58
2022/06/23 00:25:31;;;;;;;;;;;;;;;15.54;100.00;101291.28;2615104;36;19970;-62
2022/06/23 00:28:03;;;;;;;;;;;;;;;15.42;100.00;101296.09;2615326;36;19981;-57
2022/06/23 00:30:32;;;;;;;;;;;;;;;15.36;100.00;101304.88;2614745;36;19950;-59
2022/06/23 00:33:06;;;;;;;;;;;;;;;15.38;100.00;101305.56;2613090;36;19954;-58
2022/06/23 00:38:20;;;;;;;;;;;;;;;15.27;100.00;101305.81;2614526;36;20424;-63
2022/06/23 00:40:56;;;;;;;;;;;;;;;15.28;100.00;101307.50;2615190;54;19938;-64
2022/06/23 00:43:28;;;;;;;;;;;;;;;15.30;100.00;101296.53;2614615;36;20360;-59
2022/06/23 00:46:00;;;;;;;;;;;;;;;15.23;100.00;101293.56;2614790;36;19947;-57
2022/06/23 00:48:33;;;;;;;;;;;;;;;15.22;100.00;101305.41;2614554;36;19978;-60
2022/06/23 00:51:05;;;;;;;;;;;;;;;15.16;100.00;101296.03;2616454;31;19951;-56
2022/06/23 00:53:36;;;;;;;;;;;;;;;15.07;100.00;101300.56;2614558;54;19988;-59
2022/06/23 00:58:59;;;;;;;;;;;;;;;15.03;100.00;101299.16;2615633;36;19953;-54
2022/06/23 01:01:32;;;;;;;;;;;;;;;14.99;100.00;101303.19;2614722;36;19955;-61
2022/06/23 01:04:02;;;;;;;;;;;;;;;14.95;100.00;101301.78;2615670;36;20364;-59
2022/06/23 01:06:35;;;;;;;;;;;;;;;14.89;100.00;101307.81;2615341;31;20375;-63
2022/06/23 01:09:15;;;;;;;;;;;;;;;14.81;100.00;101307.72;2631703;36;20042;-57
2022/06/23 01:11:45;;;;;;;;;;;;;;;14.77;100.00;101303.66;2615536;36;19959;-58
2022/06/23 01:14:24;;;;;;;;;;;;;;;14.73;100.00;101297.66;2614987;36;20431;-60
2022/06/23 01:16:56;;;;;;;;;;;;;;;14.77;100.00;101292.81;2613769;36;20428;-59
2022/06/23 01:19:39;;;;;;;;;;;;;;;14.72;100.00;101295.94;2615025;39;20347;-58
2022/06/23 01:24:52;;;;;;;;;;;;;;;14.69;100.00;101294.41;2614693;54;19974;-58
2022/06/23 01:27:24;;;;;;;;;;;;;;;14.60;100.00;101289.00;2615594;36;19951;-58
2022/06/23 01:29:58;;;;;;;;;;;;;;;14.58;100.00;101289.16;2614663;36;19957;-58
2022/06/23 01:35:14;;;;;;;;;;;;;;;14.59;100.00;101281.88;2614391;36;20443;-60
2022/06/23 01:37:45;;;;;;;;;;;;;;;14.52;100.00;101274.38;2617732;36;20336;-59
2022/06/23 01:42:58;;;;;;;;;;;;;;;14.55;100.00;101279.47;2614554;31;19970;-59
2022/06/23 01:45:35;;;;;;;;;;;;;;;14.59;100.00;101280.03;2614243;54;20397;-59
2022/06/23 01:50:40;;;;;;;;;;;;;;;14.48;100.00;101285.66;2618814;31;20030;-59
2022/06/23 01:53:14;;;;;;;;;;;;;;;14.44;100.00;101289.66;2614128;36;20425;-58
2022/06/23 01:55:52;;;;;;;;;;;;;;;14.43;100.00;101287.97;2614712;36;19946;-60
2022/06/23 01:58:23;;;;;;;;;;;;;;;14.45;100.00;101288.69;2615103;31;19950;-58
2022/06/23 02:03:38;;;;;;;;;;;;;;;14.41;100.00;101289.97;2614211;36;20006;-59
2022/06/23 02:06:14;;;;;;;;;;;;;;;14.41;100.00;101289.97;2613905;36;19989;-58
2022/06/23 02:08:47;;;;;;;;;;;;;;;14.39;100.00;101294.69;2615016;36;19961;-59
2022/06/23 02:11:19;;;;;;;;;;;;;;;14.36;100.00;101291.28;2613964;36;20451;-59
2022/06/23 02:13:50;;;;;;;;;;;;;;;14.37;100.00;101293.00;2615633;36;20011;-58
2022/06/23 02:16:22;;;;;;;;;;;;;;;14.32;100.00;101297.16;2613386;36;19957;-58
2022/06/23 02:18:57;;;;;;;;;;;;;;;14.27;100.00;101294.88;2614470;31;19954;-58
2022/06/23 02:26:43;;;;;;;;;;;;;;;14.06;100.00;101294.25;2614084;31;19957;-58
2022/06/23 02:29:16;;;;;;;;;;;;;;;14.06;100.00;101296.97;2613861;54;19954;-57
2022/06/23 02:31:49;;;;;;;;;;;;;;;14.06;100.00;101299.66;2614297;36;19946;-60
2022/06/23 02:34:24;;;;;;;;;;;;;;;14.03;100.00;101284.59;2614928;36;20356;-58
2022/06/23 02:39:33;;;;;;;;;;;;;;;14.07;100.00;101274.31;2614749;36;19950;-58
2022/06/23 02:42:04;;;;;;;;;;;;;;;14.02;100.00;101278.31;2614859;36;19951;-58
2022/06/23 02:44:41;;;;;;;;;;;;;;;14.03;100.00;101268.38;2613548;36;19954;-59
2022/06/23 02:47:20;;;;;;;;;;;;;;;13.97;100.00;101268.94;2615149;31;19973;-58
2022/06/23 02:50:03;;;;;;;;;;;;;;;13.94;100.00;101259.28;2613971;36;19951;-57
2022/06/23 02:52:51;;;;;;;;;;;;;;;13.93;100.00;101259.44;2614088;36;19973;-59
2022/06/23 02:55:46;;;;;;;;;;;;;;;13.96;100.00;101262.69;2613793;36;19955;-61
2022/06/23 02:58:17;;;;;;;;;;;;;;;13.92;100.00;101260.44;2613819;36;19947;-58
2022/06/23 03:00:47;;;;;;;;;;;;;;;13.96;100.00;101259.97;2613434;36;19947;-60
2022/06/23 03:03:19;;;;;;;;;;;;;;;13.96;100.00;101251.84;2613969;36;19962;-58
2022/06/23 03:08:26;;;;;;;;;;;;;;;13.87;100.00;101260.88;2613880;36;19953;-57
2022/06/23 03:10:59;;;;;;;;;;;;;;;13.87;100.00;101252.75;2614349;36;20432;-58
2022/06/23 03:13:32;;;;;;;;;;;;;;;13.92;100.00;101249.59;2614208;31;19946;-58
2022/06/23 03:18:28;;;;;;;;;;;;;;;13.92;100.00;101255.00;2614954;36;20037;-57
2022/06/23 03:20:59;;;;;;;;;;;;;;;13.88;100.00;101254.44;2614306;36;19950;-60
2022/06/23 03:23:32;;;;;;;;;;;;;;;13.86;100.00;101256.44;2613909;36;19957;-61
2022/06/23 03:26:10;;;;;;;;;;;;;;;13.92;100.00;101255.00;2614997;36;19954;-58
2022/06/23 03:28:43;;;;;;;;;;;;;;;13.84;100.00;101259.31;2614256;36;19947;-58
2022/06/23 03:31:14;;;;;;;;;;;;;;;13.83;100.00;101262.16;2614505;36;19946;-59
2022/06/23 03:33:45;;;;;;;;;;;;;;;13.94;100.00;101269.22;2614270;36;19958;-61
2022/06/23 03:36:29;;;;;;;;;;;;;;;13.95;100.00;101271.78;2613667;36;19946;-59
2022/06/23 03:44:35;;;;;;;;;;;;;;;13.84;100.00;101264.72;2615311;36;19969;-58
2022/06/23 03:47:23;;;;;;;;;;;;;;;14.00;100.00;101274.03;2615164;36;20025;-57
2022/06/23 03:49:55;;;;;;;;;;;;;;;14.02;100.00;101261.25;2614186;36;19954;-59
2022/06/23 03:52:25;;;;;;;;;;;;;;;13.95;100.00;101255.56;2614356;31;19981;-59
2022/06/23 03:54:58;;;;;;;;;;;;;;;13.92;100.00;101260.44;2614282;36;20340;-59
2022/06/23 03:57:28;;;;;;;;;;;;;;;13.95;100.00;101271.78;2615449;36;19947;-61
2022/06/23 04:00:05;;;;;;;;;;;;;;;14.06;100.00;101269.91;2615668;36;20325;-59
2022/06/23 04:05:11;;;;;;;;;;;;;;;14.08;100.00;101267.91;2614269;36;19970;-59
2022/06/23 04:07:47;;;;;;;;;;;;;;;13.95;100.00;101257.41;2615634;54;19955;-59
2022/06/23 04:10:21;;;;;;;;;;;;;;;13.94;100.00;101253.88;2615380;36;20415;-60
2022/06/23 04:12:51;;;;;;;;;;;;;;;14.00;100.00;101263.22;2614668;36;19954;-58
2022/06/23 04:18:09;;;;;;;;;;;;;;;14.06;100.00;101261.78;2619036;31;19985;-59
2022/06/23 04:20:40;;;;;;;;;;;;;;;14.09;100.00;101256.06;2614605;36;19953;-63
2022/06/23 04:23:10;;;;;;;;;;;;;;;14.02;100.00;101253.97;2614503;31;19958;-58
2022/06/23 04:25:47;;;;;;;;;;;;;;;14.02;100.00;101251.25;2614889;36;20419;-65
2022/06/23 04:28:22;;;;;;;;;;;;;;;14.13;100.00;101236.69;2613937;36;19950;-58
2022/06/23 04:30:50;;;;;;;;;;;;;;;14.29;100.00;101238.72;2614948;31;19950;-58
2022/06/23 04:33:20;;;;;;;;;;;;;;;14.39;100.00;101235.13;2614199;36;20423;-61
2022/06/23 04:35:50;;;;;;;;;;;;;;;14.43;100.00;101236.50;2615464;36;19969;-62
2022/06/23 04:38:21;;;;;;;;;;;;;;;14.46;100.00;101236.22;2614558;36;20309;-62
2022/06/23 04:40:55;;;;;;;;;;;;;;;14.41;100.00;101225.81;2614196;36;19991;-59
2022/06/23 04:43:30;;;;;;;;;;;;;;;14.52;100.00;101233.75;2613794;36;20501;-61
2022/06/23 04:46:01;;;;;;;;;;;;;;;14.52;100.00;101219.34;2613762;36;19950;-64
2022/06/23 04:48:34;;;;;;;;;;;;;;;14.55;100.00;101216.34;2614075;36;19947;-59
2022/06/23 04:51:05;;;;;;;;;;;;;;;14.57;100.00;101211.59;2615240;36;19973;-58
2022/06/23 04:56:26;;;;;;;;;;;;;;;14.81;100.00;101210.16;2613786;36;19975;-59
2022/06/23 04:58:57;;;;;;;;;;;;;;;14.82;100.00;101218.16;2612904;36;19981;-59
2022/06/23 05:01:28;;;;;;;;;;;;;;;14.92;100.00;101209.94;2613776;36;19961;-60
2022/06/23 05:06:36;;;;;;;;;;;;;;;14.98;100.00;101220.16;2613670;36;19954;-61
2022/06/23 05:09:13;;;;;;;;;;;;;;;15.15;100.00;101214.88;2614926;36;19954;-60
2022/06/23 05:11:47;;;;;;;;;;;;;;;15.17;100.00;101212.88;2615257;36;19977;-62
2022/06/23 05:14:19;;;;;;;;;;;;;;;15.36;100.00;101223.50;2613353;36;20468;-59
2022/06/23 05:19:23;;;;;;;;;;;;;;;15.47;100.00;101214.25;2613650;36;20367;-62
2022/06/23 05:21:53;;;;;;;;;;;;;;;15.57;100.00;101208.72;2616508;31;19950;-62
2022/06/23 05:27:01;;;;;;;;;;;;;;;15.56;100.00;101215.16;2614017;54;20022;-62
2022/06/23 05:29:34;;;;;;;;;;;;;;;15.70;100.00;101214.56;2613757;36;19962;-58
2022/06/23 05:32:04;;;;;;;;;;;;;;;15.71;100.00;101210.84;2611929;36;19947;-57
2022/06/23 05:37:23;;;;;;;;;;;;;;;15.88;100.00;101208.25;2614865;54;19974;-60
2022/06/23 05:39:54;;;;;;;;;;;;;;;15.93;100.00;101214.06;2612339;36;20420;-58
2022/06/23 05:42:27;;;;;;;;;;;;;;;15.90;100.00;101223.34;2611916;31;20268;-60
2022/06/23 05:44:59;;;;;;;;;;;;;;;16.11;100.00;101211.22;2614583;36;19950;-60
2022/06/23 05:47:29;;;;;;;;;;;;;;;16.14;100.00;101207.34;2614597;36;19954;-58
2022/06/23 05:50:00;;;;;;;;;;;;;;;16.45;100.00;101207.59;2615253;36;19981;-56
2022/06/23 05:52:30;;;;;;;;;;;;;;;16.59;100.00;101193.38;2611620;36;19950;-58
2022/06/23 05:55:02;;;;;;;;;;;;;;;16.70;100.00;101192.19;2611862;31;19977;-58
2022/06/23 05:57:36;;;;;;;;;;;;;;;16.70;100.00;101200.34;2613955;36;19981;-60
2022/06/23 06:00:16;;;;;;;;;;;;;;;16.69;100.00;101209.50;2615130;36;19970;-59
2022/06/23 06:02:47;;;;;;;;;;;;;;;16.85;100.00;101205.13;2614096;36;19970;-61
2022/06/23 06:05:20;;;;;;;;;;;;;;;17.14;100.00;101197.31;2614925;36;19953;-58
2022/06/23 06:07:48;;;;;;;;;;;;;;;17.39;100.00;101197.28;2612728;36;19954;-59
2022/06/23 06:12:50;;;;;;;;;;;;;;;17.60;100.00;101182.28;2613915;36;19993;-63
2022/06/23 06:15:21;;;;;;;;;;;;;;;17.74;100.00;101188.84;2617233;36;19982;-61
2022/06/23 06:17:54;;;;;;;;;;;;;;;17.74;100.00;101184.28;2614823;36;19977;-59
2022/06/23 06:20:24;;;;;;;;;;;;;;;17.79;100.00;101183.75;2615268;36;20313;-61
2022/06/23 06:22:56;;;;;;;;;;;;;;;18.23;100.00;101168.75;2613568;54;19953;-59
2022/06/23 06:25:26;;;;;;;;;;;;;;;18.59;100.00;101169.03;2614771;36;20360;-60
2022/06/23 06:27:58;;;;;;;;;;;;;;;19.11;100.00;101164.72;2609620;36;19950;-58
2022/06/23 06:30:29;;;;;;;;;;;;;;;19.41;100.00;101170.22;2594750;36;19985;-62
2022/06/23 06:32:58;;;;;;;;;;;;;;;20.14;100.00;101164.94;2599975;54;19979;-59
2022/06/23 06:40:34;;;;;;;;;;;;;;;20.07;100.00;101164.00;2581941;36;20337;-59
2022/06/23 06:43:09;;;;;;;;;;;;;;;20.37;100.00;101161.19;2579416;54;19953;-62
2022/06/23 06:45:38;;;;;;;;;;;;;;;20.67;100.00;101167.44;2611835;36;19954;-58
2022/06/23 06:48:11;;;;;;;;;;;;;;;20.76;100.00;101165.38;2612338;36;19954;-60
2022/06/23 06:50:42;;;;;;;;;;;;;;;21.03;100.00;101169.22;2612732;36;19958;-60
2022/06/23 06:53:16;;;;;;;;;;;;;;;21.27;100.00;101161.63;2612247;36;19946;-59
2022/06/23 06:55:46;;;;;;;;;;;;;;;21.14;100.00;101167.81;2612138;36;19953;-62
2022/06/23 06:58:19;;;;;;;;;;;;;;;21.11;100.00;101165.50;2611979;36;19946;-60
2022/06/23 07:00:48;;;;;;;;;;;;;;;21.40;100.00;101167.19;2614364;36;20333;-58
2022/06/23 07:03:18;;;;;;;;;;;;;;;21.14;100.00;101173.31;2611765;36;19947;-59
2022/06/23 07:05:50;;;;;;;;;;;;;;;21.52;100.00;101162.00;2612817;36;19981;-59
2022/06/23 07:08:22;;;;;;;;;;;;;;;21.58;100.00;101180.38;2613992;31;20335;-58
2022/06/23 07:10:52;;;;;;;;;;;;;;;21.48;100.00;101175.25;2612960;36;19950;-59
2022/06/23 07:13:27;;;;;;;;;;;;;;;21.49;100.00;101165.13;2612552;31;19989;-62
2022/06/23 07:15:57;;;;;;;;;;;;;;;21.53;100.00;101160.97;2613223;36;20000;-59
2022/06/23 07:18:29;;;;;;;;;;;;;;;21.75;100.00;101164.47;2613981;36;19947;-61
2022/06/23 07:21:03;;;;;;;;;;;;;;;22.37;100.00;101165.38;2615680;31;20416;-64
2022/06/23 07:23:41;;;;;;;;;;;;;;;22.13;100.00;101154.91;2661067;36;19962;-62
2022/06/23 07:26:27;;;;;;;;;;;;;;;22.40;100.00;101162.22;2613751;47;19947;-58
2022/06/23 07:29:01;;;;;;;;;;;;;;;22.89;100.00;101156.59;2620297;36;19947;-59
2022/06/23 07:31:32;;;;;;;;;;;;;;;23.06;100.00;101155.09;2614662;31;19950;-59
2022/06/23 07:34:04;;;;;;;;;;;;;;;23.06;100.00;101155.09;2607431;36;20423;-60
2022/06/23 07:36:34;;;;;;;;;;;;;;;23.17;100.00;101161.88;2614647;31;20041;-62
2022/06/23 07:39:05;;;;;;;;;;;;;;;23.49;100.00;101142.00;2611918;36;20341;-58
2022/06/23 07:41:36;;;;;;;;;;;;;;;23.54;100.00;101144.91;2614432;36;20041;-59
2022/06/23 07:44:10;;;;;;;;;;;;;;;23.53;100.00;101144.09;2615081;36;20352;-58
2022/06/23 07:49:19;;;;;;;;;;;;;;;24.11;100.00;101146.00;2618340;36;20460;-58
2022/06/23 07:51:48;;;;;;;;;;;;;;;23.52;100.00;101147.88;2614005;36;19958;-61
2022/06/23 07:54:19;;;;;;;;;;;;;;;23.44;100.00;101145.38;2614516;36;19989;-59
2022/06/23 07:56:47;;;;;;;;;;;;;;;23.96;100.00;101139.94;2613449;36;19958;-58
2022/06/23 08:01:55;;;;;;;;;;;;;;;24.75;100.00;101134.19;2613298;36;19974;-58
2022/06/23 08:04:27;;;;;;;;;;;;;;;24.98;100.00;101125.31;2613036;36;20389;-59
2022/06/23 08:06:57;;;;;;;;;;;;;;;24.77;100.00;101121.06;2613774;36;19950;-59
2022/06/23 08:09:28;;;;;;;;;;;;;;;24.59;100.00;101127.34;2613969;36;19951;-60
2022/06/23 08:14:38;;;;;;;;;;;;;;;24.94;100.00;101122.19;2613242;31;19946;-61
2022/06/23 08:17:16;;;;;;;;;;;;;;;25.16;100.00;101114.34;2615971;31;20413;-58
2022/06/23 08:19:47;;;;;;;;;;;;;;;25.51;98.40;101115.72;2614337;36;20424;-59
2022/06/23 08:22:17;;;;;;;;;;;;;;;25.59;98.00;101115.41;2614275;36;20276;-58
2022/06/23 08:24:48;;;;;;;;;;;;;;;25.79;100.00;101112.41;2615438;36;19950;-59
2022/06/23 08:27:18;;;;;;;;;;;;;;;25.85;95.55;101105.97;2615597;36;20344;-62
2022/06/23 08:29:49;;;;;;;;;;;;;;;25.77;100.00;101105.44;2613660;36;19985;-59
2022/06/23 08:32:20;;;;;;;;;;;;;;;25.78;100.00;101105.22;2606736;36;19955;-60
2022/06/23 08:34:51;;;;;;;;;;;;;;;25.47;100.00;101107.06;2613772;36;19954;-58
2022/06/23 08:37:22;;;;;;;;;;;;;;;25.80;100.00;101100.31;2612220;36;19973;-59
2022/06/23 08:39:56;;;;;;;;;;;;;;;25.71;100.00;101109.97;2614413;36;20344;-59
2022/06/23 08:42:26;;;;;;;;;;;;;;;26.01;100.00;101104.50;2606159;31;19951;-59
2022/06/23 08:45:01;;;;;;;;;;;;;;;25.98;100.00;101107.69;2614006;36;20416;-59
2022/06/23 08:47:38;;;;;;;;;;;;;;;26.21;100.00;101107.00;2615294;39;20604;-58
2022/06/23 08:50:10;;;;;;;;;;;;;;;25.88;100.00;101110.16;2612244;36;19950;-59
2022/06/23 08:55:08;;;;;;;;;;;;;;;26.39;100.00;101106.06;2613101;36;19950;-60
2022/06/23 09:00:12;;;;;;;;;;;;;;;26.47;100.00;101107.69;2613684;36;19975;-60
2022/06/23 09:02:50;;;;;;;;;;;;;;;26.61;99.23;101102.78;2613998;36;19955;-58
2022/06/23 09:05:22;;;;;;;;;;;;;;;26.55;100.00;101100.97;2615231;36;20356;-60
2022/06/23 09:07:56;;;;;;;;;;;;;;;26.52;100.00;101095.94;2614799;39;20371;-59
2022/06/23 09:10:31;;;;;;;;;;;;;;;26.93;100.00;101085.91;2616790;36;19947;-58
2022/06/23 09:13:03;;;;;;;;;;;;;;;27.06;100.00;101087.56;2612624;36;19973;-58
2022/06/23 09:15:39;;;;;;;;;;;;;;;27.41;100.00;101089.50;2614080;36;20355;-62
2022/06/23 09:18:37;;;;;;;;;;;;;;;27.44;94.59;101084.34;2613340;36;19950;-59
2022/06/23 09:23:55;;;;;;;;;;;;;;;27.86;94.23;101086.03;2613730;36;19973;-59
2022/06/23 09:26:33;;;;;;;;;;;;;;;28.60;84.55;101090.72;2614354;36;19973;-58
2022/06/23 09:31:49;;;;;;;;;;;;;;;28.16;93.35;101073.88;2618560;36;19980;-58
2022/06/23 09:34:25;;;;;;;;;;;;;;;27.84;100.00;101077.13;2613051;31;19947;-58
2022/06/23 09:39:53;;;;;;;;;;;;;;;28.28;92.79;101076.59;2612584;54;19973;-60
2022/06/23 09:42:39;;;;;;;;;;;;;;;28.78;84.42;101077.72;2602695;36;19953;-59
2022/06/23 09:45:17;;;;;;;;;;;;;;;29.26;82.75;101072.66;2613889;36;19973;-59
2022/06/23 09:50:20;;;;;;;;;;;;;;;28.73;87.14;101072.13;2612254;36;19950;-61
2022/06/23 09:53:03;;;;;;;;;;;;;;;28.95;89.12;101073.00;2613844;36;19977;-58
2022/06/23 09:55:44;;;;;;;;;;;;;;;29.21;85.23;101067.84;2614290;36;20034;-59
2022/06/23 09:58:27;;;;;;;;;;;;;;;29.12;82.65;101069.38;2613131;36;19957;-58
2022/06/23 10:01:01;;;;;;;;;;;;;;;28.95;97.71;101080.50;2613662;36;20440;-60
2022/06/23 10:06:17;;;;;;;;;;;;;;;29.59;80.85;101063.34;2613346;54;20069;-60
2022/06/23 10:08:51;;;;;;;;;;;;;;;29.21;89.31;101067.00;2613764;36;19946;-59
2022/06/23 10:14:03;;;;;;;;;;;;;;;29.41;88.25;101060.94;2614303;54;19957;-62
2022/06/23 10:16:46;;;;;;;;;;;;;;;29.47;83.64;101059.88;2614003;36;19970;-58
2022/06/23 10:19:26;;;;;;;;;;;;;;;29.25;83.46;101066.25;2613357;36;19976;-59
2022/06/23 10:22:01;;;;;;;;;;;;;;;29.31;83.23;101048.63;2612847;36;19947;-59
2022/06/23 10:24:45;;;;;;;;;;;;;;;30.01;74.88;101048.88;2613959;36;19951;-58
2022/06/23 10:27:19;;;;;;;;;;;;;;;30.39;74.21;101049.78;2613749;31;19981;-60
2022/06/23 10:30:06;;;;;;;;;;;;;;;29.99;78.23;101042.78;2614224;36;19954;-57
2022/06/23 10:32:45;;;;;;;;;;;;;;;30.39;85.49;101041.47;2614091;36;19986;-59
2022/06/23 10:37:49;;;;;;;;;;;;;;;30.97;87.27;101038.00;2613327;39;20353;-62
2022/06/23 10:45:36;;;;;;;;;;;;;;;31.43;65.64;101027.16;2612299;36;20438;-59
2022/06/23 10:48:23;;;;;;;;;;;;;;;30.03;74.27;101030.00;2613329;36;19954;-60
2022/06/23 10:58:52;;;;;;;;;;;;;;;31.17;72.48;101015.09;2612878;54;20417;-59
2022/06/23 11:01:32;;;;;;;;;;;;;;;31.14;70.52;101015.63;2615478;36;20386;-59
2022/06/23 11:04:11;;;;;;;;;;;;;;;30.52;69.42;101008.81;2614467;36;19966;-58
2022/06/23 11:26:48;;;;;;;;;;;;;;;31.76;63.98;100994.44;2612494;36;19950;-59
2022/06/23 11:29:26;;;;;;;;;;;;;;;31.90;63.33;100988.34;2614606;36;19958;-56
2022/06/23 11:32:00;;;;;;;;;;;;;;;31.24;61.05;100981.44;2615054;31;20400;-56
2022/06/23 11:39:57;;;;;;;;;;;;;;;31.27;65.60;100980.91;2613643;54;19966;-66
2022/06/23 11:42:44;;;;;;;;;;;;;;;31.35;62.53;100976.78;2615961;36;20478;-61
2022/06/23 11:45:20;;;;;;;;;;;;;;;31.68;62.81;100981.06;2613419;36;20416;-60
2022/06/23 11:47:55;;;;;;;;;;;;;;;32.33;58.42;100980.56;2615965;31;19959;-59
2022/06/23 11:58:11;;;;;;;;;;;;;;;32.78;54.68;100956.56;2614991;36;19947;-58
2022/06/23 12:00:47;;;;;;;;;;;;;;;31.80;57.75;100961.31;2613582;31;19972;-62
2022/06/23 12:03:25;;;;;;;;;;;;;;;31.93;57.73;100959.94;2614678;32;20336;-58
2022/06/23 12:05:59;;;;;;;;;;;;;;;31.77;57.47;100961.88;2613305;36;19977;-59
2022/06/23 12:16:08;;;;;;;;;;;;;;;32.79;55.21;100952.66;2612049;36;20001;-59
2022/06/23 12:18:38;;;;;;;;;;;;;;;32.49;55.66;100951.59;2615045;36;19947;-60
2022/06/23 12:21:11;;;;;;;;;;;;;;;32.03;56.62;100954.38;2612148;36;19946;-60
2022/06/23 12:23:43;;;;;;;;;;;;;;;32.60;58.99;100963.53;2613921;36;19954;-57
2022/06/23 12:26:15;;;;;;;;;;;;;;;32.70;59.22;100962.72;2614222;36;19950;-59
2022/06/23 12:28:47;;;;;;;;;;;;;;;32.24;58.55;100948.84;2611349;36;19985;-62
2022/06/23 12:31:25;;;;;;;;;;;;;;;32.73;57.65;100947.38;2613925;36;19951;-60
2022/06/23 12:33:56;;;;;;;;;;;;;;;31.92;58.18;100944.34;2613162;36;19954;-62
2022/06/23 12:36:28;;;;;;;;;;;;;;;31.78;60.56;100941.28;2612495;36;19960;-57
2022/06/23 12:38:59;;;;;;;;;;;;;;;31.39;59.47;100945.38;2614376;36;20359;-57
2022/06/23 12:41:30;;;;;;;;;;;;;;;30.91;61.44;100945.41;2614702;36;19950;-58
2022/06/23 12:44:00;;;;;;;;;;;;;;;30.89;64.83;100936.53;2612787;36;19957;-61
2022/06/23 12:46:38;;;;;;;;;;;;;;;31.19;65.26;100935.00;2614372;31;20479;-58
2022/06/23 12:49:13;;;;;;;;;;;;;;;30.54;66.89;100931.63;2613096;36;20001;-59
2022/06/23 12:51:49;;;;;;;;;;;;;;;31.27;65.82;100922.50;2612558;36;19955;-58
2022/06/23 12:54:26;;;;;;;;;;;;;;;31.05;61.54;100920.78;2607385;36;19954;-61
2022/06/23 12:57:06;;;;;;;;;;;;;;;30.91;64.84;100919.59;2607211;36;19950;-60
2022/06/23 12:59:40;;;;;;;;;;;;;;;30.93;66.47;100912.66;2614132;36;19983;-59
2022/06/23 13:02:18;;;;;;;;;;;;;;;31.24;59.49;100920.28;2613001;31;19950;-58
2022/06/23 13:04:48;;;;;;;;;;;;;;;30.88;62.17;100920.13;2610366;36;19950;-58
2022/06/23 13:07:20;;;;;;;;;;;;;;;31.58;62.28;100914.25;2613208;31;19955;-58
2022/06/23 13:09:51;;;;;;;;;;;;;;;31.69;60.27;100904.00;2613154;36;19953;-61
2022/06/23 13:19:54;;;;;;;;;;;;;;;32.03;59.87;100901.47;2612858;36;19954;-57
2022/06/23 13:22:22;;;;;;;;;;;;;;;31.56;57.42;100899.81;2614477;31;19947;-57
2022/06/23 13:24:53;;;;;;;;;;;;;;;32.16;61.24;100899.28;2610976;31;19950;-58
2022/06/23 13:27:23;;;;;;;;;;;;;;;32.19;61.38;100901.50;2612573;31;20430;-57
2022/06/23 13:29:54;;;;;;;;;;;;;;;32.71;58.14;100897.50;2611020;36;19954;-60
2022/06/23 13:32:26;;;;;;;;;;;;;;;33.61;58.00;100886.41;2612824;36;19946;-57
2022/06/23 13:35:00;;;;;;;;;;;;;;;33.80;53.77;100884.63;2613929;36;20427;-58
2022/06/23 13:37:34;;;;;;;;;;;;;;;32.89;56.11;100886.81;2612374;36;19947;-57
2022/06/23 13:40:08;;;;;;;;;;;;;;;33.00;52.89;100889.28;2612371;36;19951;-57
2022/06/23 13:50:36;;;;;;;;;;;;;;;31.79;59.69;100878.97;2610507;36;19989;-59
2022/06/23 13:58:09;;;;;;;;;;;;;;;32.76;52.55;100865.97;2613388;39;20364;-60
2022/06/23 14:00:41;;;;;;;;;;;;;;;31.85;54.68;100869.50;2607908;36;19953;-58
2022/06/23 14:03:13;;;;;;;;;;;;;;;32.20;55.92;100867.81;2612397;36;19977;-56
2022/06/23 14:05:45;;;;;;;;;;;;;;;31.93;55.43;100866.13;2610588;36;20565;-61
2022/06/23 14:15:46;;;;;;;;;;;;;;;33.82;52.29;100842.44;2613858;36;19970;-58
2022/06/23 14:18:22;;;;;;;;;;;;;;;33.40;54.94;100853.09;2614583;36;19980;-59
2022/06/23 14:20:57;;;;;;;;;;;;;;;33.41;53.27;100854.75;2614582;36;19976;-59
2022/06/23 14:23:29;;;;;;;;;;;;;;;33.39;51.99;100853.38;2612687;36;20084;-61
2022/06/23 14:26:00;;;;;;;;;;;;;;;33.36;51.64;100846.41;2614073;36;20546;-57
2022/06/23 14:28:35;;;;;;;;;;;;;;;33.69;53.15;100857.91;2612442;36;19977;-58
2022/06/23 14:31:05;;;;;;;;;;;;;;;33.80;53.89;100844.72;2613597;36;19970;-58
2022/06/23 14:33:36;;;;;;;;;;;;;;;33.46;53.37;100849.13;2614452;36;19951;-59
2022/06/23 14:36:09;;;;;;;;;;;;;;;33.41;57.34;100838.03;2612555;36;19950;-57
2022/06/23 14:38:44;;;;;;;;;;;;;;;33.11;56.11;100837.09;2613496;36;19958;-59
2022/06/23 15:04:16;;;;;;;;;;;;;;;34.12;49.38;100804.19;2612747;36;20053;-57
2022/06/23 15:11:49;;;;;;;;;;;;;;;33.97;46.25;100807.97;2612840;54;19939;-58
2022/06/23 15:14:27;;;;;;;;;;;;;;;33.50;48.01;100791.63;2612435;36;19951;-62
2022/06/23 15:16:57;;;;;;;;;;;;;;;33.63;45.33;100773.38;2614160;31;19947;-61
2022/06/23 15:49:40;;;;;;;;;;;;;;;33.67;46.94;100796.78;2612606;36;19958;-58
2022/06/23 15:59:55;;;;;;;;;;;;;;;32.84;45.89;100799.31;2613351;54;19946;-59
2022/06/23 16:17:08;;;;;;;;;;;;;;;32.33;50.96;100785.59;2617578;36;19946;-57
2022/06/23 16:19:38;;;;;;;;;;;;;;;32.11;50.08;100784.03;2615027;36;20421;-59
2022/06/23 16:22:08;;;;;;;;;;;;;;;31.57;52.72;100785.47;2614601;36;19973;-61
2022/06/23 16:32:09;;;;;;;;;;;;;;;30.66;53.76;100775.84;2611673;54;19969;-56
2022/06/23 16:42:21;;;;;;;;;;;;;;;32.28;52.13;100778.09;2616983;36;20441;-59
2022/06/23 16:44:52;;;;;;;;;;;;;;;32.88;52.75;100777.28;2615852;31;19995;-57
2022/06/23 16:47:26;;;;;;;;;;;;;;;32.76;49.42;100769.28;2613675;31;20471;-60
2022/06/23 17:04:57;;;;;;;;;;;;;;;30.75;54.74;100763.09;2610976;54;19953;-58
2022/06/23 17:29:51;;;;;;;;;;;;;;;29.62;73.53;100771.66;2619311;31;19954;-61
2022/06/23 17:32:21;;;;;;;;;;;;;;;29.39;71.84;100777.53;2614915;36;19961;-55
2022/06/23 17:34:53;;;;;;;;;;;;;;;29.15;74.35;100775.94;2615191;36;19950;-58
2022/06/23 17:37:26;;;;;;;;;;;;;;;29.43;73.29;100774.00;2614856;36;19977;-56
2022/06/23 17:45:24;;;;;;;;;;;;;;;29.27;81.62;100780.47;2614172;36;19962;-59
2022/06/23 17:55:15;;;;;;;;;;;;;;;29.63;78.43;100781.63;2613339;36;19958;-57
2022/06/23 18:05:15;;;;;;;;;;;;;;;29.47;85.97;100771.50;2612405;54;19957;-60
2022/06/23 18:07:45;;;;;;;;;;;;;;;29.86;83.80;100768.50;2613812;36;19977;-56
2022/06/23 18:10:16;;;;;;;;;;;;;;;29.79;77.84;100767.88;2613352;31;19955;-58
2022/06/23 18:12:46;;;;;;;;;;;;;;;29.76;79.43;100773.97;2613861;36;19954;-60
2022/06/23 18:22:56;;;;;;;;;;;;;;;30.12;82.14;100765.88;2612330;36;19946;-58
2022/06/23 18:25:28;;;;;;;;;;;;;;;29.83;82.79;100771.78;2614278;31;19950;-58
2022/06/23 18:28:01;;;;;;;;;;;;;;;30.10;82.45;100773.63;2613914;31;20436;-58
2022/06/23 18:30:32;;;;;;;;;;;;;;;29.42;91.13;100777.03;2611917;31;19958;-58
2022/06/23 18:33:04;;;;;;;;;;;;;;;29.67;84.26;100782.75;2613815;36;19969;-60
2022/06/23 18:35:34;;;;;;;;;;;;;;;29.78;88.13;100780.88;2596878;36;20014;-57
2022/06/23 18:38:09;;;;;;;;;;;;;;;29.50;84.89;100774.56;2606167;36;19946;-58
2022/06/23 18:40:40;;;;;;;;;;;;;;;29.50;80.52;100774.56;2610320;36;19951;-58
2022/06/23 18:43:13;;;;;;;;;;;;;;;29.36;84.35;100759.50;2614309;36;20004;-61
2022/06/23 18:45:44;;;;;;;;;;;;;;;28.90;88.17;100757.13;2610569;36;19951;-61
2022/06/23 18:48:15;;;;;;;;;;;;;;;29.27;88.32;100766.63;2611989;31;20541;-57
2022/06/23 18:50:45;;;;;;;;;;;;;;;29.31;87.83;100756.69;2611818;36;20451;-58
2022/06/23 18:53:25;;;;;;;;;;;;;;;29.28;89.51;100758.03;2611939;36;19954;-60